Latest Weather Observations for Double Island Point

IDQ60901

Issued at 4:01 pm EST Sunday 11 December 2016 (issued every 10 minutes, with the page automatically refreshed every 10 minutes)

About weather observations | Map of Brisbane area stations | Latest observations for Brisbane area | Other Formats
Station Details ID: 040068 Name: DOUBLE ISLAND POINT LIGHTHOUSE Lat: -25.93 Lon: 153.19 Height: 95.64 m
Data from the previous 72 hours. | See also: Recent months at Double Island Point
Date/Time
EST
Temp
°C
App
Temp
°C
Dew
Point
°C
Rel
Hum
%
Delta-T
°C
Wind Press
QNH
hPa
Press
MSL
hPa
Rain since
9am
mm
Dir  Spd
km/h
Gust
km/h
Spd
kts
Gust
kts
11/03:30pm - - - - - SE 33 39 18 21 1019.2 1018.7 0.0
11/03:00pm - - - - - SE 37 41 20 22 1019.2 1018.7 0.0
11/02:30pm - - - - - SE 35 41 19 22 1019.6 1019.1 0.0
11/02:00pm - - - - - SE 35 41 19 22 1019.8 1019.3 0.0
11/01:30pm - - - - - SE 35 39 19 21 1020.1 1019.6 0.0
11/01:00pm - - - - - SE 35 39 19 21 1020.4 1019.9 0.0
11/12:30pm - - - - - SE 35 41 19 22 1020.6 1020.1 0.0
11/12:00pm - - - - - SE 35 39 19 21 1020.8 1020.3 0.0
11/11:30am - - - - - SE 35 39 19 21 1021.0 1020.5 0.0
11/11:00am - - - - - SE 35 39 19 21 1020.8 1020.3 0.0
11/10:30am - - - - - SE 35 39 19 21 1020.9 1020.4 0.0
11/10:00am - - - - - SE 37 41 20 22 1020.7 1020.2 0.0
11/09:30am - - - - - SE 37 43 20 23 1020.7 1020.2 0.0
11/09:00am - - - - - SE 35 39 19 21 1020.4 1019.9 0.0
11/08:30am - - - - - ESE 35 41 19 22 1020.3 1019.8 0.0
11/08:00am - - - - - SE 33 41 18 22 1020.4 1019.9 0.0
11/07:30am - - - - - ESE 32 37 17 20 1020.3 1019.8 0.0
11/07:00am - - - - - ESE 35 43 19 23 1020.0 1019.5 0.0
11/06:30am - - - - - ESE 35 41 19 22 1020.0 1019.5 0.0
11/06:00am - - - - - ESE 39 43 21 23 1019.5 1019.0 0.0
11/05:30am - - - - - ESE 37 43 20 23 1019.0 1018.5 0.0
11/05:00am - - - - - ESE 37 43 20 23 1018.7 1018.2 0.0
11/04:30am - - - - - ESE 39 46 21 25 1018.4 1017.9 0.0
11/04:00am - - - - - ESE 39 44 21 24 1018.3 1017.8 0.0
11/03:30am - - - - - ESE 39 43 21 23 1018.2 1017.7 0.0
11/03:00am - - - - - E 35 41 19 22 1018.5 1018.0 0.0
11/02:30am - - - - - E 37 43 20 23 1018.8 1018.3 0.0
11/02:00am - - - - - ESE 37 43 20 23 1018.8 1018.3 0.0
11/01:30am - - - - - ESE 43 48 23 26 1018.8 1018.3 0.0
11/01:00am - - - - - ESE 43 52 23 28 1018.9 1018.4 0.0
11/12:30am - - - - - ESE 44 54 24 29 1019.1 1018.6 0.0
11/12:00am - - - - - ESE 41 48 22 26 1019.8 1019.3 0.0
 
Date/Time
EST
Temp
°C
App
Temp
°C
Dew
Point
°C
Rel
Hum
%
Delta-T
°C
Wind Press
QNH
hPa
Press
MSL
hPa
Rain since
9am
mm
Dir  Spd
km/h
Gust
km/h
Spd
kts
Gust
kts
10/11:30pm - - - - - ESE 39 44 21 24 1020.2 1019.7 0.0
10/11:00pm - - - - - ESE 41 46 22 25 1020.4 1019.9 0.0
10/10:30pm - - - - - ESE 41 48 22 26 1020.4 1019.9 0.0
10/10:00pm - - - - - ESE 43 48 23 26 1020.5 1020.0 0.0
10/09:30pm - - - - - ESE 44 50 24 27 1020.4 1019.9 0.0
10/09:00pm - - - - - ESE 46 54 25 29 1020.1 1019.6 0.0
10/08:30pm - - - - - ESE 46 52 25 28 1019.9 1019.4 0.0
10/08:00pm - - - - - ESE 46 54 25 29 1019.8 1019.3 0.0
10/07:30pm - - - - - ESE 46 50 25 27 1019.8 1019.3 0.0
10/07:00pm - - - - - ESE 46 52 25 28 1019.5 1019.0 0.0
10/06:30pm - - - - - ESE 50 57 27 31 1019.0 1018.5 0.0
10/06:00pm - - - - - ESE 48 54 26 29 1019.1 1018.6 0.0
10/05:30pm - - - - - ESE 46 54 25 29 1018.9 1018.4 0.0
10/05:00pm - - - - - ESE 48 56 26 30 1018.3 1017.8 0.0
10/04:30pm - - - - - ESE 48 57 26 31 1018.0 1017.5 0.0
10/04:00pm - - - - - ESE 46 57 25 31 1018.0 1017.5 0.0
10/03:30pm - - - - - ESE 46 56 25 30 1018.2 1017.7 0.0
10/03:00pm - - - - - ESE 44 54 24 29 1018.6 1018.1 0.0
10/02:30pm - - - - - ESE 46 56 25 30 1018.5 1018.0 0.0
10/02:00pm - - - - - ESE 48 56 26 30 1018.6 1018.1 0.0
10/01:30pm - - - - - ESE 50 56 27 30 1018.6 1018.1 0.0
10/01:00pm - - - - - SE 50 56 27 30 1018.9 1018.4 0.0
10/12:30pm - - - - - SE 48 56 26 30 1018.8 1018.3 0.0
10/12:00pm - - - - - SE 52 57 28 31 1018.9 1018.4 0.0
10/11:30am - - - - - SE 48 54 26 29 1019.1 1018.6 0.0
10/11:00am - - - - - SE 46 54 25 29 1019.0 1018.5 0.0
10/10:30am - - - - - SE 43 50 23 27 1019.1 1018.6 0.0
10/10:00am - - - - - SE 46 54 25 29 1018.9 1018.4 0.0
10/09:30am - - - - - ESE 44 54 24 29 1018.5 1018.0 0.0
10/09:00am - - - - - ESE 43 50 23 27 1018.5 1018.0 1.0
10/08:30am - - - - - ESE 46 54 25 29 1018.0 1017.5 1.0
10/08:00am - - - - - ESE 46 57 25 31 1017.5 1017.0 1.0
10/07:30am - - - - - ESE 48 57 26 31 1017.4 1016.9 1.0
10/07:00am - - - - - ESE 52 61 28 33 1016.8 1016.3 1.0
10/06:42am - - - - - ESE 39 57 21 31 1016.8 1016.3 1.0
10/06:30am - - - - - SE 48 57 26 31 1016.4 1015.9 1.0
10/06:00am - - - - - SE 46 54 25 29 1015.7 1015.2 1.0
10/05:49am - - - - - SSE 33 44 18 24 1015.6 1015.1 1.0
10/05:30am - - - - - S 30 33 16 18 1015.6 1015.1 1.0
10/05:00am - - - - - S 28 33 15 18 1015.2 1014.7 1.0
10/04:30am - - - - - S 28 33 15 18 1014.8 1014.3 0.8
10/04:00am - - - - - S 30 35 16 19 1014.5 1014.0 0.8
10/03:30am - - - - - S 26 32 14 17 1014.2 1013.7 0.8
10/03:00am - - - - - S 22 30 12 16 1014.3 1013.8 0.8
10/02:30am - - - - - S 15 19 8 10 1014.2 1013.7 0.8
10/02:00am - - - - - CALM 0 0 0 0 1013.9 1013.4 0.8
10/01:30am - - - - - CALM 0 0 0 0 1013.5 1013.0 0.8
10/01:00am - - - - - CALM 0 0 0 0 1013.5 1013.0 0.8
10/12:30am - - - - - WNW 7 9 4 5 1013.6 1013.1 0.8
10/12:00am - - - - - WNW 11 13 6 7 1013.7 1013.2 0.8
 
Date/Time
EST
Temp
°C
App
Temp
°C
Dew
Point
°C
Rel
Hum
%
Delta-T
°C
Wind Press
QNH
hPa
Press
MSL
hPa
Rain since
9am
mm
Dir  Spd
km/h
Gust
km/h
Spd
kts
Gust
kts
09/11:30pm - - - - - NNW 7 7 4 4 1014.0 1013.5 0.8
09/11:00pm - - - - - NW 9 11 5 6 1014.4 1013.9 0.8
09/10:30pm - - - - - NNW 9 11 5 6 1014.4 1013.9 0.8
09/10:00pm - - - - - N 7 11 4 6 1014.5 1014.0 0.8
09/09:30pm - - - - - NNE 7 9 4 5 1014.2 1013.7 0.8
09/09:00pm - - - - - ENE 2 6 1 3 1013.9 1013.4 0.8
09/08:30pm - - - - - NE 6 9 3 5 1013.6 1013.1 0.8
09/08:00pm - - - - - NNE 4 7 2 4 1013.3 1012.9 0.8
09/07:30pm - - - - - ESE 7 9 4 5 1012.6 1012.1 0.8
09/07:00pm - - - - - SE 7 11 4 6 1012.5 1012.0 0.8
09/06:30pm - - - - - E 6 7 3 4 1012.3 1011.8 0.8
09/06:00pm - - - - - E 6 9 3 5 1012.0 1011.5 0.8
09/05:30pm - - - - - ESE 7 9 4 5 1011.7 1011.2 0.8
09/05:00pm - - - - - ENE 6 7 3 4 1011.3 1010.8 0.8
09/04:30pm - - - - - ENE 9 11 5 6 1010.7 1010.2 0.8
09/04:00pm - - - - - ESE 7 9 4 5 1010.6 1010.1 0.8
09/03:30pm - - - - - ESE 13 15 7 8 1010.6 1010.1 0.8
09/03:00pm - - - - - SE 15 19 8 10 1010.7 1010.2 0.8
09/02:30pm - - - - - S 19 24 10 13 1010.7 1010.2 0.6
09/02:00pm - - - - - CALM 0 6 0 3 1010.7 1010.2 0.0
09/01:30pm - - - - - SE 2 6 1 3 1010.5 1010.0 0.0
09/01:00pm - - - - - W 11 20 6 11 1010.2 1009.7 0.0
09/12:30pm - - - - - WNW 17 28 9 15 1010.0 1009.5 0.0
09/12:00pm - - - - - WNW 24 32 13 17 1009.8 1009.3 0.0
09/11:30am - - - - - WNW 20 32 11 17 1010.1 1009.6 0.0
09/11:00am - - - - - WNW 28 35 15 19 1010.0 1009.5 0.0
09/10:30am - - - - - WNW 24 37 13 20 1010.2 1009.7 0.0
09/10:00am - - - - - WNW 24 35 13 19 1010.2 1009.7 0.0
09/09:30am - - - - - WNW 19 26 10 14 1010.5 1010.0 0.0
09/09:00am - - - - - WNW 22 30 12 16 1010.8 1010.3 4.8
09/08:30am - - - - - WNW 22 30 12 16 1011.2 1010.7 4.8
09/08:00am - - - - - WNW 20 28 11 15 1011.3 1010.8 4.8
09/07:30am - - - - - WNW 26 33 14 18 1011.4 1010.9 4.8
09/07:00am - - - - - WNW 30 39 16 21 1011.2 1010.7 4.8
09/06:30am - - - - - WNW 39 50 21 27 1010.8 1010.3 4.8
09/06:00am - - - - - WNW 32 44 17 24 1010.3 1009.8 4.8
09/05:30am - - - - - NW 35 41 19 22 1010.0 1009.5 4.6
09/05:00am - - - - - WNW 35 44 19 24 1009.6 1009.1 4.6
09/04:30am - - - - - WNW 35 44 19 24 1009.5 1009.0 4.6
09/04:00am - - - - - NW 30 35 16 19 1009.3 1008.8 4.6
09/03:30am - - - - - NNW 22 32 12 17 1009.2 1008.7 4.6
09/03:00am - - - - - NNW 28 37 15 20 1009.4 1008.9 4.6
09/02:30am - - - - - NW 26 32 14 17 1009.2 1008.7 4.6
09/02:00am - - - - - NW 28 33 15 18 1009.7 1009.2 4.4
09/01:30am - - - - - NW 35 46 19 25 1010.5 1010.0 3.8
09/01:00am - - - - - NW 43 54 23 29 1010.9 1010.4 3.2
09/12:30am - - - - - NW 41 52 22 28 1011.1 1010.6 2.8
09/12:00am - - - - - NW 35 50 19 27 1011.4 1010.9 1.8
 
Date/Time
EST
Temp
°C
App
Temp
°C
Dew
Point
°C
Rel
Hum
%
Delta-T
°C
Wind Press
QNH
hPa
Press
MSL
hPa
Rain since
9am
mm
Dir  Spd
km/h
Gust
km/h
Spd
kts
Gust
kts
08/11:30pm - - - - - NW 44 56 24 30 1011.3 1010.8 0.8
08/11:04pm - - - - - WNW 37 57 20 31 1011.5 1011.0 0.2
08/11:00pm - - - - - WNW 37 46 20 25 1011.7 1011.2 0.2
08/10:30pm - - - - - NW 33 44 18 24 1011.8 1011.3 0.0
08/10:25pm - - - - - NW 30 44 16 24 1011.7 1011.2 0.0
08/10:00pm - - - - - NNW 17 24 9 13 1010.9 1010.4 0.0
08/09:30pm - - - - - NNW 13 22 7 12 1010.7 1010.2 0.0
08/09:00pm - - - - - N 11 15 6 8 1010.7 1010.2 0.0
08/08:30pm - - - - - N 11 19 6 10 1010.6 1010.1 0.0
08/08:00pm - - - - - N 7 13 4 7 1010.1 1009.6 0.0
08/07:30pm - - - - - N 7 15 4 8 1009.8 1009.3 0.0
08/07:00pm - - - - - NNW 9 15 5 8 1009.6 1009.1 0.0
08/06:30pm - - - - - NNW 9 19 5 10 1008.8 1008.3 0.0
08/06:00pm - - - - - NNW 15 26 8 14 1008.0 1007.5 0.0
08/05:30pm - - - - - NNW 17 32 9 17 1008.0 1007.5 0.0
08/05:00pm - - - - - NNW 17 32 9 17 1008.0 1007.5 0.0
08/04:30pm - - - - - N 24 41 13 22 1007.6 1007.1 0.0
08/04:21pm - - - - - N 32 50 17 27 1007.9 1007.4 0.0

Latest Capital City Observations: Canberra | Sydney | Melbourne | Brisbane | Adelaide | Perth | Hobart | Darwin

Other Formats:

Comma delimited format used in spreadsheet applications
http://www.bom.gov.au/fwo/IDQ60901/IDQ60901.94584.axf

JavaScript Object Notation format (JSON) in row-major order
http://www.bom.gov.au/fwo/IDQ60901/IDQ60901.94584.json